createdAt,value
2019-02-23T00:00:37.499Z,2.50
2019-02-23T00:03:29.027Z,2.50
2019-02-23T00:06:29.342Z,2.60
2019-02-23T00:09:10.347Z,2.50
2019-02-23T00:12:00.623Z,2.50
2019-02-23T00:14:50.348Z,2.40
2019-02-23T00:17:40.171Z,2.40
2019-02-23T00:20:29.975Z,2.40
2019-02-23T00:23:20.035Z,2.40
2019-02-23T00:26:09.818Z,2.40
2019-02-23T00:28:59.602Z,2.30
2019-02-23T00:31:49.625Z,2.30
2019-02-23T00:34:39.782Z,2.40
2019-02-23T00:37:32.446Z,2.50
2019-02-23T00:40:22.522Z,2.30
2019-02-23T00:43:12.376Z,2.30
2019-02-23T00:46:02.115Z,2.10
2019-02-23T00:48:51.867Z,2.10
2019-02-23T00:51:41.669Z,2.00
2019-02-23T00:54:31.235Z,2.10
2019-02-23T00:57:21.106Z,2.00
2019-02-23T01:00:11.832Z,2.00
2019-02-23T01:03:01.882Z,2.10
2019-02-23T01:05:51.372Z,2.10
2019-02-23T01:08:41.012Z,2.10
2019-02-23T01:11:30.896Z,2.00
2019-02-23T01:14:20.879Z,1.90
2019-02-23T01:17:10.482Z,1.80
2019-02-23T01:20:00.610Z,1.80
2019-02-23T01:22:51.548Z,1.80
2019-02-23T01:25:41.343Z,1.80
2019-02-23T01:28:31.013Z,1.80
2019-02-23T01:31:20.802Z,1.80
2019-02-23T01:34:10.895Z,1.80
2019-02-23T01:37:00.693Z,1.70
2019-02-23T01:39:50.365Z,1.70
2019-02-23T01:42:40.619Z,1.60
2019-02-23T01:45:30.692Z,1.50
2019-02-23T01:48:20.443Z,1.60
2019-02-23T01:51:10.516Z,1.50
2019-02-23T01:54:00.675Z,1.50
2019-02-23T01:56:50.165Z,1.50
2019-02-23T01:59:40.101Z,1.50
2019-02-23T02:02:29.955Z,1.40
2019-02-23T02:05:19.475Z,1.30
2019-02-23T02:08:09.986Z,1.30
2019-02-23T02:10:59.516Z,1.30
2019-02-23T02:13:49.513Z,1.30
2019-02-23T02:16:39.552Z,1.30
2019-02-23T02:19:29.393Z,1.30
2019-02-23T02:22:19.105Z,1.30
2019-02-23T02:25:09.268Z,1.20
2019-02-23T02:27:59.162Z,1.20
2019-02-23T02:30:49.124Z,1.20
2019-02-23T02:34:07.712Z,1.10
2019-02-23T02:36:57.495Z,1.10
2019-02-23T02:39:47.252Z,1.00
2019-02-23T02:42:37.013Z,1.00
2019-02-23T02:45:29.194Z,1.00
2019-02-23T02:48:19.564Z,1.00
2019-02-23T02:51:09.617Z,1.20
2019-02-23T02:53:59.936Z,1.00
2019-02-23T02:56:49.437Z,1.10
2019-02-23T02:59:39.563Z,1.00
2019-02-23T03:02:30.491Z,0.90
2019-02-23T03:05:20.703Z,0.80
2019-02-23T03:08:10.855Z,0.70
2019-02-23T03:11:02.649Z,0.80
2019-02-23T03:13:52.171Z,0.90
2019-02-23T03:16:42.031Z,0.90
2019-02-23T03:19:32.057Z,1.00
2019-02-23T03:22:22.343Z,1.00
2019-02-23T03:25:12.412Z,1.00
2019-02-23T03:28:02.601Z,1.00
2019-02-23T03:30:52.611Z,0.90
2019-02-23T03:33:42.303Z,0.90
2019-02-23T03:36:32.087Z,0.90
2019-02-23T03:39:22.095Z,0.80
2019-02-23T03:42:11.912Z,0.70
2019-02-23T03:45:01.848Z,0.70
2019-02-23T03:47:51.472Z,0.70
2019-02-23T03:50:48.941Z,0.80
2019-02-23T03:53:32.845Z,0.80
2019-02-23T03:56:22.795Z,0.70
2019-02-23T03:59:12.612Z,0.50
2019-02-23T04:02:02.321Z,0.50
2019-02-23T04:04:51.985Z,0.40
2019-02-23T04:07:42.017Z,0.40
2019-02-23T04:10:31.575Z,0.60
2019-02-23T04:13:21.324Z,0.70
2019-02-23T04:16:11.605Z,0.70
2019-02-23T04:19:01.355Z,0.70
2019-02-23T04:21:51.384Z,0.80
2019-02-23T04:24:41.072Z,0.70
2019-02-23T04:27:30.842Z,0.70
2019-02-23T04:30:20.653Z,0.80
2019-02-23T04:33:10.392Z,0.70
2019-02-23T04:36:00.422Z,0.60
2019-02-23T04:38:50.253Z,0.60
2019-02-23T04:41:40.097Z,0.50
2019-02-23T04:44:30.453Z,0.50
2019-02-23T04:47:20.406Z,0.60
2019-02-23T04:50:10.226Z,0.60
2019-02-23T04:52:59.793Z,0.50
2019-02-23T04:55:49.406Z,0.70
2019-02-23T04:58:39.012Z,0.60
2019-02-23T05:01:28.833Z,0.60
2019-02-23T05:04:18.691Z,0.60
2019-02-23T05:07:08.505Z,0.60
2019-02-23T05:09:58.067Z,0.60
2019-02-23T05:12:47.965Z,0.70
2019-02-23T05:15:37.816Z,0.90
2019-02-23T05:18:28.322Z,0.80
2019-02-23T05:21:25.952Z,0.80
2019-02-23T05:24:09.925Z,0.80
2019-02-23T05:26:59.784Z,0.80
2019-02-23T05:29:49.196Z,0.80
2019-02-23T05:32:39.037Z,0.80
2019-02-23T05:35:28.865Z,0.70
2019-02-23T05:38:18.792Z,0.80
2019-02-23T05:41:08.819Z,0.80
2019-02-23T05:43:58.282Z,0.70
2019-02-23T05:46:48.042Z,0.80
2019-02-23T05:49:37.865Z,0.70
2019-02-23T05:52:28.013Z,0.70
2019-02-23T05:55:17.939Z,0.70
2019-02-23T05:58:07.746Z,0.70
2019-02-23T06:00:57.897Z,0.70
2019-02-23T06:03:47.526Z,0.70
2019-02-23T06:06:37.213Z,0.70
2019-02-23T06:09:27.093Z,0.80
2019-02-23T06:12:16.719Z,0.70
2019-02-23T06:15:07.892Z,0.80
2019-02-23T06:17:57.981Z,0.80
2019-02-23T06:20:47.652Z,0.80
2019-02-23T06:23:37.353Z,0.80
2019-02-23T06:26:27.036Z,0.90
2019-02-23T06:29:17.102Z,0.90
2019-02-23T06:32:06.910Z,1.00
2019-02-23T06:34:56.472Z,1.00
2019-02-23T06:37:46.432Z,1.10
2019-02-23T06:40:36.159Z,1.10
2019-02-23T06:43:25.925Z,1.00
2019-02-23T06:46:15.726Z,1.00
2019-02-23T06:49:05.273Z,1.00
2019-02-23T06:52:03.994Z,1.00
2019-02-23T06:54:46.881Z,1.10
2019-02-23T06:57:36.424Z,1.20
2019-02-23T07:00:29.800Z,1.20
2019-02-23T07:03:19.260Z,1.20
2019-02-23T07:06:09.075Z,1.30
2019-02-23T07:08:58.865Z,1.40
2019-02-23T07:11:49.213Z,1.40
2019-02-23T07:14:38.909Z,1.30
2019-02-23T07:17:28.371Z,1.40
2019-02-23T07:20:18.543Z,1.50
2019-02-23T07:23:08.575Z,1.50
2019-02-23T07:25:58.356Z,1.40
2019-02-23T07:28:48.111Z,1.50
2019-02-23T07:31:37.953Z,1.60
2019-02-23T07:34:28.284Z,1.60
2019-02-23T07:37:18.297Z,1.60
2019-02-23T07:40:08.444Z,1.70
2019-02-23T07:42:58.421Z,1.70
2019-02-23T07:45:48.426Z,1.70
2019-02-23T07:48:38.015Z,1.70
2019-02-23T07:51:27.994Z,1.70
2019-02-23T07:54:17.753Z,1.80
2019-02-23T07:57:08.363Z,1.90
2019-02-23T07:59:57.766Z,2.00
2019-02-23T08:02:47.422Z,2.00
2019-02-23T08:05:37.307Z,2.00
2019-02-23T08:08:26.773Z,2.10
2019-02-23T08:11:16.513Z,2.10
2019-02-23T08:14:06.145Z,2.20
2019-02-23T08:16:55.771Z,2.20
2019-02-23T08:19:45.771Z,2.30
2019-02-23T08:22:37.529Z,2.40
2019-02-23T08:25:27.282Z,2.50
2019-02-23T08:28:16.955Z,2.60
2019-02-23T08:31:06.853Z,2.60
2019-02-23T08:33:56.854Z,2.70
2019-02-23T08:36:46.318Z,2.80
2019-02-23T08:39:35.761Z,2.90
2019-02-23T08:42:25.551Z,2.90
2019-02-23T08:45:15.023Z,3.00
2019-02-23T08:48:04.561Z,3.10
2019-02-23T08:50:55.292Z,3.20
2019-02-23T08:53:44.701Z,3.20
2019-02-23T08:56:34.633Z,3.30
2019-02-23T08:59:24.202Z,3.30
2019-02-23T09:02:13.891Z,3.40
2019-02-23T09:05:03.665Z,3.50
2019-02-23T09:07:54.791Z,3.60
2019-02-23T09:10:44.484Z,3.60
2019-02-23T09:13:34.080Z,3.70
2019-02-23T09:16:23.706Z,3.80
2019-02-23T09:19:13.182Z,3.90
2019-02-23T09:22:02.966Z,3.90
2019-02-23T09:24:52.754Z,3.90
2019-02-23T09:27:43.026Z,3.90
2019-02-23T09:30:32.713Z,4.10
2019-02-23T09:33:22.374Z,4.10
2019-02-23T09:36:11.887Z,4.10
2019-02-23T09:39:01.522Z,4.20
2019-02-23T09:41:52.841Z,4.30
2019-02-23T09:44:42.933Z,4.30
2019-02-23T09:47:32.914Z,4.30
2019-02-23T09:50:23.031Z,4.40
2019-02-23T09:53:12.974Z,4.40
2019-02-23T09:56:02.532Z,4.40
2019-02-23T09:58:51.952Z,4.40
2019-02-23T10:01:41.715Z,4.50
2019-02-23T10:04:31.418Z,4.50
2019-02-23T10:07:21.241Z,4.60
2019-02-23T10:10:10.982Z,4.70
2019-02-23T10:13:00.784Z,4.70
2019-02-23T10:15:50.537Z,4.90
2019-02-23T10:18:40.194Z,5.00
2019-02-23T10:21:30.436Z,5.20
2019-02-23T10:24:19.953Z,5.30
2019-02-23T10:27:09.722Z,5.30
2019-02-23T10:29:59.502Z,5.30
2019-02-23T10:32:49.756Z,5.40
2019-02-23T10:35:39.381Z,5.40
2019-02-23T10:38:29.364Z,5.40
2019-02-23T10:41:20.008Z,5.50
2019-02-23T10:44:10.464Z,5.50
2019-02-23T10:47:01.977Z,5.60
2019-02-23T10:49:54.294Z,5.70
2019-02-23T10:52:43.915Z,5.70
2019-02-23T10:55:33.824Z,5.80
2019-02-23T10:58:23.741Z,5.90
2019-02-23T11:01:13.965Z,6.00
2019-02-23T11:04:04.364Z,6.00
2019-02-23T11:06:54.110Z,6.00
2019-02-23T11:09:44.004Z,6.10
2019-02-23T11:12:34.035Z,6.10
2019-02-23T11:15:24.326Z,6.20
2019-02-23T11:18:13.781Z,6.20
2019-02-23T11:21:04.228Z,6.30
2019-02-23T11:23:54.277Z,6.40
2019-02-23T11:26:44.636Z,6.40
2019-02-23T11:29:34.907Z,6.40
2019-02-23T11:32:25.742Z,6.30
2019-02-23T11:35:17.332Z,6.30
2019-02-23T11:38:07.534Z,6.30
2019-02-23T11:40:57.823Z,6.40
2019-02-23T11:43:47.957Z,6.40
2019-02-23T11:46:37.939Z,6.50
2019-02-23T11:49:27.892Z,6.60
2019-02-23T11:52:17.871Z,6.60
2019-02-23T11:55:08.289Z,6.60
2019-02-23T11:57:58.232Z,6.70
2019-02-23T12:00:47.824Z,6.80
2019-02-23T12:03:37.731Z,7.00
2019-02-23T12:06:27.538Z,7.00
2019-02-23T12:09:17.075Z,6.90
2019-02-23T12:12:07.228Z,6.90
2019-02-23T12:14:57.325Z,6.90
2019-02-23T12:17:47.012Z,7.00
2019-02-23T12:20:36.896Z,7.10
2019-02-23T12:23:26.994Z,7.10
2019-02-23T12:26:16.845Z,7.20
2019-02-23T12:29:06.854Z,7.20
2019-02-23T12:31:58.245Z,7.20
2019-02-23T12:34:47.491Z,7.30
2019-02-23T12:37:37.114Z,7.40
2019-02-23T12:40:27.201Z,7.60
2019-02-23T12:43:17.186Z,7.70
2019-02-23T12:46:06.885Z,7.60
2019-02-23T12:48:56.764Z,7.70
2019-02-23T12:51:46.428Z,7.80
2019-02-23T12:54:36.066Z,7.80
2019-02-23T12:57:27.093Z,7.90
2019-02-23T13:00:16.946Z,7.80
2019-02-23T13:03:06.734Z,7.90
2019-02-23T13:05:56.626Z,8.00
2019-02-23T13:09:15.414Z,8.30
2019-02-23T13:12:46.307Z,8.60
2019-02-23T13:16:03.241Z,8.70
2019-02-23T13:19:39.631Z,8.60
2019-02-23T13:23:04.518Z,8.40
2019-02-23T13:26:12.593Z,8.30
2019-02-23T13:29:14.155Z,8.20
2019-02-23T13:32:59.156Z,8.00
2019-02-23T13:36:17.505Z,8.00
2019-02-23T13:40:00.313Z,8.00
2019-02-23T13:43:22.884Z,8.00
2019-02-23T13:47:18.392Z,8.00
2019-02-23T13:50:48.315Z,7.80
2019-02-23T13:54:18.547Z,7.80
2019-02-23T13:57:36.912Z,7.80
2019-02-23T14:01:10.599Z,7.70
2019-02-23T14:04:23.765Z,7.70
2019-02-23T14:07:47.854Z,7.60
2019-02-23T14:11:09.101Z,7.60
2019-02-23T14:14:45.093Z,7.60
2019-02-23T14:18:10.711Z,7.60
2019-02-23T14:21:44.521Z,7.60
2019-02-23T14:24:53.685Z,7.60
2019-02-23T14:28:19.851Z,7.60
2019-02-23T14:31:40.900Z,7.60
2019-02-23T14:35:29.681Z,7.60
2019-02-23T14:38:55.111Z,7.50
2019-02-23T14:41:59.831Z,7.50
2019-02-23T14:45:30.259Z,7.50
2019-02-23T14:49:16.417Z,7.50
2019-02-23T14:52:58.999Z,7.50
2019-02-23T14:56:16.695Z,7.40
2019-02-23T14:59:39.319Z,7.40
2019-02-23T15:03:13.084Z,7.40
2019-02-23T15:06:18.456Z,7.40
2019-02-23T15:09:51.252Z,7.40
2019-02-23T15:13:14.140Z,7.40
2019-02-23T15:16:29.755Z,7.30
2019-02-23T15:19:50.736Z,7.30
2019-02-23T15:23:29.566Z,7.30
2019-02-23T15:26:57.232Z,7.30
2019-02-23T15:30:20.791Z,7.20
2019-02-23T15:33:55.549Z,7.10
2019-02-23T15:37:06.857Z,7.00
2019-02-23T15:40:28.824Z,7.00
2019-02-23T15:43:50.209Z,7.00
2019-02-23T15:47:28.421Z,6.90
2019-02-23T15:50:18.568Z,6.90
2019-02-23T15:53:08.049Z,6.70
2019-02-23T15:56:01.214Z,6.70
2019-02-23T15:58:50.872Z,6.70
2019-02-23T16:01:40.292Z,6.60
2019-02-23T16:04:30.106Z,6.60
2019-02-23T16:07:19.522Z,6.50
2019-02-23T16:10:09.113Z,6.50
2019-02-23T16:12:59.055Z,6.40
2019-02-23T16:15:48.554Z,6.40
2019-02-23T16:18:38.204Z,6.30
2019-02-23T16:21:27.827Z,6.20
2019-02-23T16:24:17.254Z,6.10
2019-02-23T16:27:07.184Z,6.20
2019-02-23T16:30:00.445Z,6.00
2019-02-23T16:32:50.217Z,5.90
2019-02-23T16:35:40.248Z,5.80
2019-02-23T16:38:30.152Z,5.70
2019-02-23T16:41:23.132Z,5.50
2019-02-23T16:44:12.914Z,5.50
2019-02-23T16:47:02.604Z,5.40
2019-02-23T16:49:52.676Z,5.30
2019-02-23T16:52:45.411Z,5.20
2019-02-23T16:55:34.994Z,5.10
2019-02-23T16:58:27.535Z,5.00
2019-02-23T17:01:16.927Z,4.90
2019-02-23T17:04:06.395Z,4.80
2019-02-23T17:06:55.791Z,4.70
2019-02-23T17:09:45.323Z,4.60
2019-02-23T17:12:34.944Z,4.70
2019-02-23T17:15:25.119Z,4.60
2019-02-23T17:18:15.362Z,4.50
2019-02-23T17:21:05.073Z,4.50
2019-02-23T17:23:54.638Z,4.40
2019-02-23T17:26:44.532Z,4.40
2019-02-23T17:29:34.256Z,4.30
2019-02-23T17:32:23.971Z,4.30
2019-02-23T17:35:13.756Z,4.20
2019-02-23T17:38:15.396Z,4.10
2019-02-23T17:40:55.861Z,4.00
2019-02-23T17:43:45.599Z,4.00
2019-02-23T17:46:35.022Z,3.90
2019-02-23T17:49:24.652Z,3.90
2019-02-23T17:52:14.022Z,3.90
2019-02-23T17:55:04.349Z,3.80
2019-02-23T17:57:53.923Z,3.80
2019-02-23T18:00:43.542Z,3.70
2019-02-23T18:03:34.136Z,3.70
2019-02-23T18:06:23.905Z,3.70
2019-02-23T18:09:13.597Z,3.60
2019-02-23T18:12:03.243Z,3.60
2019-02-23T18:14:53.144Z,3.60
2019-02-23T18:17:42.911Z,3.60
2019-02-23T18:20:33.808Z,3.50
2019-02-23T18:23:23.595Z,3.40
2019-02-23T18:26:20.841Z,3.40
2019-02-23T18:29:03.863Z,3.40
2019-02-23T18:31:53.149Z,3.30
2019-02-23T18:34:42.983Z,3.30
2019-02-23T18:37:32.615Z,3.30
2019-02-23T18:40:22.172Z,3.20
2019-02-23T18:43:11.672Z,3.20
2019-02-23T18:46:01.018Z,3.20
2019-02-23T18:48:50.427Z,3.20
2019-02-23T18:51:40.152Z,3.30
2019-02-23T18:54:30.081Z,3.30
2019-02-23T18:57:23.942Z,3.40
2019-02-23T19:00:13.647Z,3.30
2019-02-23T19:03:04.322Z,3.30
2019-02-23T19:05:54.707Z,3.30
2019-02-23T19:08:43.886Z,3.30
2019-02-23T19:11:33.834Z,3.30
2019-02-23T19:14:23.332Z,3.40
2019-02-23T19:17:12.885Z,3.50
2019-02-23T19:20:02.635Z,3.50
2019-02-23T19:22:53.826Z,3.60
2019-02-23T19:25:43.444Z,3.60
2019-02-23T19:28:32.984Z,3.50
2019-02-23T19:31:22.310Z,3.50
2019-02-23T19:34:12.047Z,3.50
2019-02-23T19:37:01.489Z,3.50
2019-02-23T19:39:51.433Z,3.70
2019-02-23T19:42:40.818Z,3.60
2019-02-23T19:45:30.816Z,3.70
2019-02-23T19:48:20.407Z,3.60
2019-02-23T19:51:10.795Z,3.60
2019-02-23T19:54:00.338Z,3.70
2019-02-23T19:56:50.165Z,3.70
2019-02-23T19:59:40.131Z,3.60
2019-02-23T20:02:30.404Z,3.60
2019-02-23T20:05:20.284Z,3.60
2019-02-23T20:08:10.076Z,3.60
2019-02-23T20:10:59.991Z,3.60
2019-02-23T20:13:49.593Z,3.50
2019-02-23T20:16:39.947Z,3.50
2019-02-23T20:19:29.574Z,3.50
2019-02-23T20:22:19.055Z,3.50
2019-02-23T20:25:08.759Z,3.40
2019-02-23T20:27:58.086Z,3.40
2019-02-23T20:30:47.493Z,3.50
2019-02-23T20:33:38.162Z,3.40
2019-02-23T20:36:28.216Z,3.50
2019-02-23T20:39:18.393Z,3.60
2019-02-23T20:42:08.251Z,3.50
2019-02-23T20:44:57.812Z,3.60
2019-02-23T20:47:47.175Z,3.60
2019-02-23T20:50:37.163Z,3.60
2019-02-23T20:53:27.466Z,3.70
2019-02-23T20:56:17.087Z,3.70
2019-02-23T20:59:06.806Z,3.80
2019-02-23T21:01:56.595Z,3.90
2019-02-23T21:04:46.331Z,4.00
2019-02-23T21:07:35.986Z,4.00
2019-02-23T21:10:25.626Z,4.00
2019-02-23T21:13:15.851Z,4.00
2019-02-23T21:16:05.304Z,3.90
2019-02-23T21:18:55.220Z,3.90
2019-02-23T21:21:44.876Z,3.90
2019-02-23T21:24:34.323Z,3.90
2019-02-23T21:27:23.955Z,3.90
2019-02-23T21:30:13.483Z,4.00
2019-02-23T21:33:03.457Z,4.00
2019-02-23T21:35:53.445Z,4.00
2019-02-23T21:38:43.329Z,3.90
2019-02-23T21:41:33.590Z,4.00
2019-02-23T21:44:23.612Z,3.90
2019-02-23T21:47:13.386Z,3.80
2019-02-23T21:50:03.281Z,3.80
2019-02-23T21:52:52.960Z,3.70
2019-02-23T21:55:42.949Z,3.60
2019-02-23T21:58:32.535Z,3.50
2019-02-23T22:01:21.920Z,3.40
2019-02-23T22:04:12.084Z,3.40
2019-02-23T22:07:01.803Z,3.30
2019-02-23T22:09:51.727Z,3.20
2019-02-23T22:12:41.500Z,3.10
2019-02-23T22:15:31.270Z,3.10
2019-02-23T22:18:21.072Z,2.90
2019-02-23T22:21:10.739Z,2.90
2019-02-23T22:24:00.313Z,2.90
2019-02-23T22:26:50.091Z,2.80
2019-02-23T22:29:39.771Z,2.80
2019-02-23T22:32:29.044Z,2.70
2019-02-23T22:35:18.646Z,2.70
2019-02-23T22:38:08.329Z,2.60
2019-02-23T22:40:57.962Z,2.50
2019-02-23T22:43:49.528Z,2.50
2019-02-23T22:46:39.504Z,2.50
2019-02-23T22:49:29.376Z,2.30
2019-02-23T22:52:19.052Z,2.20
2019-02-23T22:55:08.602Z,2.20
2019-02-23T22:57:58.322Z,2.20
2019-02-23T23:00:55.766Z,2.10
2019-02-23T23:03:46.875Z,2.00
2019-02-23T23:06:37.912Z,2.00
2019-02-23T23:09:27.768Z,1.90
2019-02-23T23:12:17.562Z,1.90
2019-02-23T23:15:07.336Z,1.90
2019-02-23T23:17:57.235Z,2.00
2019-02-23T23:20:47.102Z,2.00
2019-02-23T23:23:36.766Z,1.90
2019-02-23T23:26:26.022Z,1.90
2019-02-23T23:29:15.417Z,2.00
2019-02-23T23:32:05.294Z,1.90
2019-02-23T23:34:55.078Z,1.90
2019-02-23T23:37:44.762Z,1.80
2019-02-23T23:40:34.434Z,1.70
2019-02-23T23:43:24.413Z,1.60
2019-02-23T23:46:13.862Z,1.50
2019-02-23T23:49:03.376Z,1.40
2019-02-23T23:51:53.122Z,1.50
2019-02-23T23:54:43.033Z,1.60
2019-02-23T23:57:32.592Z,1.50
